Погода Сириамна неделю

Янгон, Мьянма

23 - 29 февраля
  • 23февраля
    Сегодня
    +20°
    +34°
    Ясно и безоблачно
    ВремяПогодаТемператураВлажностьДавлениеВетер, м/сВероятность осадков
    00:30Ясно и безоблачно+25°C87 %758 мм2.6 м/с2 %
    03:30Небольшая облачность+22°C95 %757 мм2.3 м/с2 %
    06:30Облачно с прояснениями+22°C98 %758 мм0.0 м/с2 %
    09:30Небольшая облачность+27°C70 %760 мм0.0 м/с2 %
    12:30Ясно и безоблачно+33°C34 %758 мм0.9 м/с2 %
    15:30Ясно и безоблачно+34°C34 %756 мм2.0 м/с2 %
    18:30Ясно и безоблачно+28°C63 %757 мм2.8 м/с2 %
    21:30Ясно и безоблачно+25°C80 %758 мм1.1 м/с2 %
  • 24февраля
    Суббота
    +21°
    +36°
    Ясно и безоблачно
    ВремяПогодаТемператураВлажностьДавлениеВетер, м/сВероятность осадков
    00:30Ясно и безоблачно+24°C86 %758 мм2.3 м/с2 %
    03:30Ясно и безоблачно+22°C91 %757 мм1.6 м/с2 %
    06:30Ясно и безоблачно+21°C92 %758 мм0.0 м/с2 %
    09:30Ясно и безоблачно+28°C55 %760 мм0.6 м/с2 %
    12:30Ясно и безоблачно+34°C29 %758 мм1.0 м/с2 %
    15:30Ясно и безоблачно+36°C26 %756 мм1.4 м/с2 %
    18:30Ясно и безоблачно+30°C50 %756 мм1.9 м/с2 %
    21:30Ясно и безоблачно+27°C65 %758 мм1.2 м/с2 %
  • 25февраля
    Воскресенье
    +22°
    +37°
    Ясно и безоблачно
    ВремяПогодаТемператураВлажностьДавлениеВетер, м/сВероятность осадков
    00:30Ясно и безоблачно+25°C70 %758 мм2.4 м/с2 %
    03:30Ясно и безоблачно+22°C79 %757 мм2.1 м/с2 %
    06:30Ясно и безоблачно+22°C78 %758 мм0.0 м/с2 %
    09:30Ясно и безоблачно+29°C45 %759 мм0.0 м/с2 %
    12:30Ясно и безоблачно+35°C25 %757 мм1.1 м/с2 %
    15:30Ясно и безоблачно+36°C22 %755 мм2.5 м/с2 %
    18:30Ясно и безоблачно+31°C41 %756 мм1.2 м/с2 %
    21:30Ясно и безоблачно+27°C66 %758 мм1.1 м/с2 %
  • 26февраля
    Понедельник
    +22°
    +37°
    Ясно и безоблачно
    ВремяПогодаТемператураВлажностьДавлениеВетер, м/сВероятность осадков
    00:30Ясно и безоблачно+26°C61 %757 мм2.7 м/с2 %
    03:30Ясно и безоблачно+23°C80 %757 мм2.1 м/с2 %
    06:30Ясно и безоблачно+22°C89 %758 мм0.4 м/с2 %
    09:30Ясно и безоблачно+30°C42 %759 мм0.3 м/с2 %
    12:30Ясно и безоблачно+35°C24 %757 мм1.0 м/с2 %
    15:30Ясно и безоблачно+37°C20 %755 мм1.6 м/с2 %
    18:30Ясно и безоблачно+32°C38 %755 мм1.5 м/с2 %
    21:30Ясно и безоблачно+28°C53 %757 мм1.5 м/с2 %
  • 27февраля
    Вторник
    +23°
    +37°
    Ясно и безоблачно
    ВремяПогодаТемператураВлажностьДавлениеВетер, м/сВероятность осадков
    00:30Ясно и безоблачно+26°C62 %757 мм2.0 м/с2 %
    03:30Ясно и безоблачно+24°C73 %756 мм2.2 м/с2 %
    06:30Практически безоблачно+23°C86 %757 мм0.0 м/с2 %
    09:30Облачно с прояснениями+30°C42 %759 мм0.2 м/с2 %
    12:30Ясно и безоблачно+36°C28 %757 мм1.6 м/с2 %
    15:30Ясно и безоблачно+37°C23 %754 мм1.9 м/с2 %
    18:30Ясно и безоблачно+32°C39 %754 мм2.2 м/с2 %
    21:30Ясно и безоблачно+28°C49 %756 мм1.5 м/с2 %
Мы используем cookies
Соглашаюсь